Time;durP1;ratioP1;P1;durP2;ratioP2;P2;SDS_P1;SDS_P2;PMS_P1;PMS_P2;Temp;Humidity;BMP_temperature;BMP_pressure;BME280_temperature;BME280_humidity;BME280_pressure;Samples;Min_cycle;Max_cycle;Signal;HPM_P1;HPM_P2
2022/02/14 00:01:55;;;;;;;9.27;3.80;;;;;;;10.26;56.17;98451.69;5089481;28;20420;-62
2022/02/14 00:04:22;;;;;;;4.38;3.00;;;;;;;10.26;55.90;98449.06;5092911;28;20109;-60
2022/02/14 00:06:49;;;;;;;6.72;3.47;;;;;;;10.25;56.05;98445.56;5094088;28;20052;-59
2022/02/14 00:09:15;;;;;;;8.32;3.47;;;;;;;10.27;56.38;98446.31;5093962;28;20051;-61
2022/02/14 00:11:42;;;;;;;6.15;2.92;;;;;;;10.29;56.58;98439.13;5093814;28;20113;-63
2022/02/14 00:14:08;;;;;;;7.32;2.78;;;;;;;10.29;56.20;98436.50;5092633;28;20116;-60
2022/02/14 00:16:35;;;;;;;5.07;2.67;;;;;;;10.29;56.18;98420.72;5093450;28;20105;-60
2022/02/14 00:19:02;;;;;;;7.55;2.85;;;;;;;10.32;56.35;98431.97;5092760;28;20040;-59
2022/02/14 00:21:29;;;;;;;9.52;3.65;;;;;;;10.32;56.51;98426.72;5092609;28;20495;-60
2022/02/14 00:23:56;;;;;;;6.68;3.00;;;;;;;10.34;56.67;98411.63;5093739;28;20044;-60
2022/02/14 00:26:22;;;;;;;7.85;2.97;;;;;;;10.36;56.44;98428.16;5092231;28;20097;-60
2022/02/14 00:28:49;;;;;;;5.22;3.00;;;;;;;10.34;56.27;98417.75;5093614;28;20454;-60
2022/02/14 00:31:15;;;;;;;6.70;2.95;;;;;;;10.35;56.25;98415.97;5093783;28;20408;-62
2022/02/14 00:33:42;;;;;;;5.20;2.75;;;;;;;10.33;56.05;98400.28;5092328;28;20048;-60
2022/02/14 00:36:10;;;;;;;4.78;2.60;;;;;;;10.35;56.54;98400.19;5093628;28;20109;-62
2022/02/14 00:38:36;;;;;;;4.93;2.58;;;;;;;10.36;56.43;98412.38;5093363;28;20488;-61
2022/02/14 00:41:03;;;;;;;9.20;2.90;;;;;;;10.37;56.62;98414.88;5093104;28;20044;-60
2022/02/14 00:43:29;;;;;;;5.40;2.45;;;;;;;10.37;56.43;98385.94;5093603;28;20093;-61
2022/02/14 00:45:56;;;;;;;4.68;2.50;;;;;;;10.37;56.26;98399.09;5093678;28;20048;-59
2022/02/14 00:48:24;;;;;;;6.82;2.53;;;;;;;10.38;56.46;98384.13;5093523;28;20455;-61
2022/02/14 00:50:51;;;;;;;4.43;2.55;;;;;;;10.40;56.63;98392.75;5092958;28;20068;-60
2022/02/14 00:53:19;;;;;;;7.88;2.60;;;;;;;10.39;56.37;98389.28;5091909;28;20044;-60
2022/02/14 00:55:46;;;;;;;5.75;2.58;;;;;;;10.39;56.66;98384.03;5093267;28;20131;-60
2022/02/14 00:58:14;;;;;;;6.45;2.67;;;;;;;10.40;56.46;98385.69;5092889;28;20102;-60
2022/02/14 01:00:41;;;;;;;6.53;2.83;;;;;;;10.42;56.60;98372.41;5093308;28;20052;-60
2022/02/14 01:03:08;;;;;;;6.40;2.92;;;;;;;10.42;56.58;98368.00;5093088;28;20082;-61
2022/02/14 01:05:36;;;;;;;7.20;3.08;;;;;;;10.40;56.16;98358.56;5092519;28;20200;-61
2022/02/14 01:08:04;;;;;;;4.85;2.78;;;;;;;10.39;55.86;98365.59;5092898;28;20117;-60
2022/02/14 01:10:31;;;;;;;7.82;2.67;;;;;;;10.40;56.15;98369.09;5091456;28;20052;-60
2022/02/14 01:12:58;;;;;;;5.85;2.45;;;;;;;10.40;56.44;98356.75;5092598;28;20051;-56
2022/02/14 01:15:24;;;;;;;8.18;2.67;;;;;;;10.42;56.41;98364.53;5092555;28;20047;-60
2022/02/14 01:17:51;;;;;;;9.88;2.80;;;;;;;10.43;56.64;98347.78;5091712;28;20047;-60
2022/02/14 01:20:17;;;;;;;4.07;2.58;;;;;;;10.47;56.72;98343.16;5092589;28;20052;-61
2022/02/14 01:22:44;;;;;;;6.05;2.55;;;;;;;10.48;56.70;98350.09;5092472;28;20392;-59
2022/02/14 01:25:11;;;;;;;5.90;2.92;;;;;;;10.47;56.60;98349.22;5092504;28;20044;-60
2022/02/14 01:27:38;;;;;;;7.38;2.28;;;;;;;10.49;56.62;98342.06;5091479;28;20105;-60
2022/02/14 01:30:06;;;;;;;8.77;3.17;;;;;;;10.50;56.91;98332.41;5090925;28;20077;-61
2022/02/14 01:32:32;;;;;;;3.50;2.33;;;;;;;10.50;56.74;98330.59;5091181;28;20558;-60
2022/02/14 01:34:59;;;;;;;5.63;2.58;;;;;;;10.50;56.73;98333.22;5092432;28;20093;-60
2022/02/14 01:37:26;;;;;;;6.32;2.50;;;;;;;10.50;56.51;98333.22;5092227;28;20044;-61
2022/02/14 01:39:52;;;;;;;6.63;2.80;;;;;;;10.51;56.49;98326.16;5091970;28;20063;-61
2022/02/14 01:42:19;;;;;;;5.55;2.95;;;;;;;10.54;56.61;98325.91;5092227;28;20667;-60
2022/02/14 01:44:53;;;;;;;3.67;2.50;;;;;;;10.53;55.46;98330.34;5091592;28;20524;-64
2022/02/14 01:47:22;;;;;;;3.67;2.30;;;;;;;10.57;56.50;98323.03;5090987;28;20048;-60
2022/02/14 01:49:50;;;;;;;4.05;2.30;;;;;;;10.59;56.82;98320.28;5091949;28;20051;-61
2022/02/14 01:52:17;;;;;;;4.82;2.63;;;;;;;10.60;56.82;98320.16;5091812;28;20052;-61
2022/02/14 01:54:46;;;;;;;8.43;2.70;;;;;;;10.59;56.57;98305.34;5090829;28;20047;-62
2022/02/14 01:57:15;;;;;;;4.50;2.60;;;;;;;10.60;56.79;98320.16;5090714;28;20191;-60
2022/02/14 01:59:43;;;;;;;6.13;2.58;;;;;;;10.61;56.56;98302.59;5091800;28;20048;-58
2022/02/14 02:02:11;;;;;;;4.43;2.70;;;;;;;10.61;56.73;98310.50;5091585;28;20048;-60
2022/02/14 02:04:41;;;;;;;8.23;2.80;;;;;;;10.58;55.85;98323.88;5091839;28;20048;-59
2022/02/14 02:07:08;;;;;;;5.78;2.75;;;;;;;10.59;56.74;98301.88;5090770;28;20056;-59
2022/02/14 02:09:35;;;;;;;6.78;2.50;;;;;;;10.59;56.89;98296.59;5091500;28;20449;-61
2022/02/14 02:14:57;;;;;;;5.55;2.35;;;;;;;10.59;55.21;98286.06;5091950;28;20048;-61
2022/02/14 02:17:27;;;;;;;9.07;2.85;;;;;;;10.60;56.04;98295.63;5090231;28;20086;-60
2022/02/14 02:19:54;;;;;;;5.85;2.83;;;;;;;10.62;56.83;98278.75;5090130;28;20048;-60
2022/02/14 02:22:21;;;;;;;7.45;2.50;;;;;;;10.59;56.64;98279.03;5090367;28;20514;-60
2022/02/14 02:24:52;;;;;;;8.30;2.95;;;;;;;10.61;56.50;98278.91;5089328;28;20047;-60
2022/02/14 02:27:21;;;;;;;6.97;2.85;;;;;;;10.63;56.64;98266.44;5091624;28;20047;-57
2022/02/14 02:29:49;;;;;;;7.40;2.58;;;;;;;10.63;56.92;98253.28;5090053;28;20496;-60
2022/02/14 02:32:15;;;;;;;6.45;2.78;;;;;;;10.65;57.08;98256.66;5091190;28;20048;-60
2022/02/14 02:34:43;;;;;;;7.40;2.50;;;;;;;10.66;56.95;98245.97;5091018;28;20093;-61
2022/02/14 02:37:13;;;;;;;8.05;2.90;;;;;;;10.67;56.61;98241.56;5091287;28;20742;-61
2022/02/14 02:39:41;;;;;;;5.82;2.72;;;;;;;10.68;56.81;98233.53;5091049;28;20044;-61
2022/02/14 02:42:10;;;;;;;7.25;2.67;;;;;;;10.69;56.71;98229.09;5090871;28;20044;-60
2022/02/14 02:44:40;;;;;;;6.47;2.75;;;;;;;10.73;57.11;98230.50;5089958;28;20462;-61
2022/02/14 02:47:09;;;;;;;4.07;2.30;;;;;;;10.75;56.90;98225.13;5091359;28;20459;-59
2022/02/14 02:49:37;;;;;;;5.43;2.28;;;;;;;10.79;56.99;98219.50;5090366;28;20047;-59
2022/02/14 02:52:06;;;;;;;9.70;3.08;;;;;;;10.82;57.03;98214.00;5091143;28;20089;-59
2022/02/14 02:54:33;;;;;;;6.63;2.63;;;;;;;10.85;57.28;98212.06;5089845;28;20401;-60
2022/02/14 02:57:00;;;;;;;6.90;2.50;;;;;;;10.87;57.30;98203.06;5089813;28;20052;-61
2022/02/14 02:59:28;;;;;;;4.15;2.40;;;;;;;10.89;57.08;98198.50;5090337;28;20048;-61
2022/02/14 03:01:55;;;;;;;5.30;2.50;;;;;;;10.89;56.98;98193.25;5089580;28;20488;-59
2022/02/14 03:04:21;;;;;;;12.30;2.90;;;;;;;10.91;57.09;98187.84;5090700;28;20405;-61
2022/02/14 03:06:48;;;;;;;5.85;2.75;;;;;;;10.92;57.33;98187.72;5090476;28;20044;-60
2022/02/14 03:09:15;;;;;;;6.30;2.70;;;;;;;10.95;57.07;98186.59;5090329;28;20102;-59
2022/02/14 03:11:44;;;;;;;6.00;2.47;;;;;;;10.95;56.86;98186.59;5090819;28;20545;-60
2022/02/14 03:14:12;;;;;;;7.28;2.40;;;;;;;10.96;56.65;98183.03;5090623;28;20102;-60
2022/02/14 03:16:39;;;;;;;8.85;3.00;;;;;;;10.98;56.84;98183.72;5089253;28;20541;-60
2022/02/14 03:19:07;;;;;;;7.63;2.60;;;;;;;11.00;56.77;98186.25;5090380;28;20040;-63
2022/02/14 03:21:34;;;;;;;6.40;2.78;;;;;;;11.02;57.01;98177.25;5089500;28;20077;-60
2022/02/14 03:24:01;;;;;;;10.75;3.33;;;;;;;11.03;56.60;98173.63;5090564;28;20121;-60
2022/02/14 03:26:27;;;;;;;7.20;2.55;;;;;;;11.07;57.07;98161.06;5090818;28;20090;-60
2022/02/14 03:28:55;;;;;;;6.18;2.83;;;;;;;11.11;57.00;98167.75;5090592;28;20113;-61
2022/02/14 03:31:22;;;;;;;8.23;3.15;;;;;;;11.13;57.25;98165.81;5089108;28;20048;-59
2022/02/14 03:33:49;;;;;;;7.57;2.95;;;;;;;11.15;56.83;98155.13;5090534;28;20047;-62
2022/02/14 03:36:18;;;;;;;6.43;2.20;;;;;;;11.16;56.92;98155.00;5091058;28;20102;-59
2022/02/14 03:38:46;;;;;;;6.18;2.40;;;;;;;11.17;56.84;98153.19;5093684;28;20044;-61
2022/02/14 03:41:13;;;;;;;8.70;2.40;;;;;;;11.16;56.52;98154.16;5093154;28;20052;-59
2022/02/14 03:43:39;;;;;;;6.78;2.55;;;;;;;11.15;56.60;98140.19;5094655;28;20052;-58
2022/02/14 03:46:06;;;;;;;5.95;2.45;;;;;;;11.13;56.63;98141.25;5094034;28;20052;-59
2022/02/14 03:48:33;;;;;;;8.50;2.67;;;;;;;11.11;56.58;98138.78;5094369;28;20045;-59
2022/02/14 03:51:00;;;;;;;6.82;2.50;;;;;;;11.08;56.56;98131.97;5092911;28;20056;-61
2022/02/14 03:53:27;;;;;;;8.73;2.80;;;;;;;11.06;56.48;98133.03;5094354;28;20464;-61
2022/02/14 03:55:54;;;;;;;6.70;2.67;;;;;;;11.02;56.05;98124.59;5093495;28;20694;-61
2022/02/14 03:58:21;;;;;;;10.30;2.95;;;;;;;11.00;56.40;98131.78;5092944;28;20048;-61
2022/02/14 04:00:48;;;;;;;5.78;2.50;;;;;;;10.99;56.45;98122.19;5093448;28;20052;-59
2022/02/14 04:03:15;;;;;;;5.90;2.70;;;;;;;10.98;56.79;98120.53;5094254;28;20659;-62
2022/02/14 04:05:41;;;;;;;7.13;2.50;;;;;;;10.97;56.85;98120.66;5093983;28;20077;-59
2022/02/14 04:08:08;;;;;;;7.20;2.95;;;;;;;10.95;56.94;98113.75;5093948;28;20476;-59
2022/02/14 04:10:35;;;;;;;8.10;2.45;;;;;;;10.94;56.62;98114.72;5093996;28;20051;-59
2022/02/14 04:13:01;;;;;;;7.93;2.53;;;;;;;10.94;56.98;98108.59;5093877;28;20094;-59
2022/02/14 04:15:28;;;;;;;7.15;2.90;;;;;;;10.91;56.05;98116.75;5093945;28;20585;-60
2022/02/14 04:17:54;;;;;;;6.75;2.50;;;;;;;10.92;57.04;98119.25;5093636;28;20059;-60
2022/02/14 04:20:21;;;;;;;5.72;2.58;;;;;;;10.90;56.65;98107.19;5092617;28;20052;-60
2022/02/14 04:22:48;;;;;;;9.98;2.65;;;;;;;10.87;56.59;98104.84;5093945;28;20044;-62
2022/02/14 04:25:16;;;;;;;8.10;2.45;;;;;;;10.88;56.88;98104.69;5093815;28;20106;-61
2022/02/14 04:27:43;;;;;;;8.88;2.70;;;;;;;10.86;56.67;98109.25;5092449;28;20048;-61
2022/02/14 04:30:11;;;;;;;5.00;2.22;;;;;;;10.85;56.64;98102.34;5093390;28;20413;-60
2022/02/14 04:32:39;;;;;;;5.57;2.20;;;;;;;10.84;56.90;98099.84;5092994;28;20495;-60
2022/02/14 04:35:06;;;;;;;5.63;2.53;;;;;;;10.81;56.57;98112.28;5093653;28;20044;-61
2022/02/14 04:37:33;;;;;;;5.63;2.40;;;;;;;10.79;56.83;98106.31;5093878;28;20048;-59
2022/02/14 04:40:00;;;;;;;7.40;2.92;;;;;;;10.76;56.63;98103.94;5093319;28;20097;-59
2022/02/14 04:42:27;;;;;;;5.30;2.30;;;;;;;10.75;56.87;98088.28;5093545;28;20052;-60
2022/02/14 04:44:53;;;;;;;7.63;2.47;;;;;;;10.72;56.60;98110.44;5093405;28;20081;-59
2022/02/14 04:47:20;;;;;;;7.68;2.47;;;;;;;10.70;56.70;98093.94;5092334;28;20075;-60
2022/02/14 04:49:46;;;;;;;4.60;2.30;;;;;;;10.67;56.62;98110.84;5092821;28;20404;-59
2022/02/14 04:52:13;;;;;;;7.00;2.60;;;;;;;10.63;56.62;98096.25;5093353;28;20052;-61
2022/02/14 04:54:39;;;;;;;7.45;2.53;;;;;;;10.60;56.54;98103.56;5093191;28;20492;-59
2022/02/14 04:57:06;;;;;;;6.38;2.17;;;;;;;10.59;56.80;98099.25;5092810;28;20467;-62
2022/02/14 04:59:33;;;;;;;9.02;2.80;;;;;;;10.58;56.93;98100.25;5092947;28;20133;-61
2022/02/14 05:02:00;;;;;;;4.60;2.10;;;;;;;10.57;56.95;98106.47;5093067;28;20458;-59
2022/02/14 05:04:28;;;;;;;4.53;2.35;;;;;;;10.54;56.82;98103.13;5092681;28;20489;-60
2022/02/14 05:06:55;;;;;;;9.48;2.60;;;;;;;10.54;57.01;98097.84;5093234;28;20055;-59
2022/02/14 05:09:21;;;;;;;6.03;2.40;;;;;;;10.55;56.99;98103.97;5091534;28;20105;-59
2022/02/14 05:11:48;;;;;;;10.75;2.63;;;;;;;10.53;56.79;98114.59;5092858;28;20484;-60
2022/02/14 05:14:14;;;;;;;6.38;2.53;;;;;;;10.52;56.70;98097.16;5092642;28;20093;-62
2022/02/14 05:16:41;;;;;;;4.88;2.28;;;;;;;10.52;57.06;98112.94;5091231;28;20047;-61
2022/02/14 05:19:08;;;;;;;7.80;2.50;;;;;;;10.53;56.86;98096.19;5092572;28;20125;-60
2022/02/14 05:21:35;;;;;;;6.70;2.65;;;;;;;10.56;57.10;98092.47;5091215;28;20492;-60
2022/02/14 05:24:02;;;;;;;5.55;2.40;;;;;;;10.57;57.30;98088.06;5092589;28;20051;-60
2022/02/14 05:26:29;;;;;;;8.65;2.67;;;;;;;10.58;57.12;98097.59;5092577;28;20055;-60
2022/02/14 05:28:55;;;;;;;6.13;2.80;;;;;;;10.57;56.68;98107.28;5091875;28;20117;-60
2022/02/14 05:31:26;;;;;;;7.03;2.85;;;;;;;10.55;56.69;98086.34;5090640;28;20048;-59
2022/02/14 05:33:53;;;;;;;7.28;2.70;;;;;;;10.59;56.77;98081.69;5090253;28;20559;-59
2022/02/14 05:36:19;;;;;;;5.75;2.28;;;;;;;10.62;56.79;98075.34;5092463;28;20044;-61
2022/02/14 05:38:46;;;;;;;6.43;2.47;;;;;;;10.62;56.70;98081.41;5092331;28;20093;-59
2022/02/14 05:41:14;;;;;;;4.28;2.55;;;;;;;10.63;56.29;98069.94;5090926;28;20056;-60
2022/02/14 05:43:41;;;;;;;7.28;2.33;;;;;;;10.66;56.66;98080.19;5092270;28;20074;-60
2022/02/14 05:46:13;;;;;;;5.75;2.45;;;;;;;10.69;56.74;98079.94;5090639;28;20484;-59
2022/02/14 05:48:45;;;;;;;5.05;2.38;;;;;;;10.70;56.18;98088.69;5092173;28;20138;-60
2022/02/14 05:51:14;;;;;;;8.93;2.22;;;;;;;10.70;56.35;98088.69;5090827;28;20047;-60
2022/02/14 05:53:41;;;;;;;6.72;2.20;;;;;;;10.73;56.48;98082.31;5092271;28;20039;-60
2022/02/14 05:56:08;;;;;;;5.38;2.00;;;;;;;10.72;56.37;98076.22;5090879;28;20109;-60
2022/02/14 05:58:40;;;;;;;5.10;2.28;;;;;;;10.76;56.39;98095.22;5090633;28;20075;-60
2022/02/14 06:01:07;;;;;;;5.55;2.55;;;;;;;10.75;56.37;98085.63;5091646;28;20458;-59
2022/02/14 06:03:34;;;;;;;9.52;2.80;;;;;;;10.79;56.66;98084.41;5092087;28;20439;-61
2022/02/14 06:06:01;;;;;;;5.45;2.50;;;;;;;10.82;56.56;98087.66;5091901;28;20542;-61
2022/02/14 06:08:28;;;;;;;5.47;2.10;;;;;;;10.82;56.45;98094.69;5090699;28;20070;-60
2022/02/14 06:10:54;;;;;;;4.75;2.10;;;;;;;10.84;56.07;98121.72;5092026;28;20056;-61
2022/02/14 06:13:21;;;;;;;4.85;2.13;;;;;;;10.86;56.46;98092.63;5091830;28;20060;-60
2022/02/14 06:15:48;;;;;;;7.63;2.38;;;;;;;10.88;56.37;98095.97;5091726;28;20048;-62
2022/02/14 06:18:14;;;;;;;6.32;2.00;;;;;;;10.91;56.58;98100.97;5091122;28;20051;-61
2022/02/14 06:20:41;;;;;;;5.97;2.50;;;;;;;10.90;56.25;98088.78;5091372;28;20051;-60
2022/02/14 06:23:08;;;;;;;5.40;2.15;;;;;;;10.92;56.50;98100.84;5091316;28;20081;-61
2022/02/14 06:25:35;;;;;;;4.53;2.15;;;;;;;10.92;56.14;98110.56;5091533;28;20138;-59
2022/02/14 06:28:01;;;;;;;5.13;2.15;;;;;;;10.90;56.36;98096.66;5091781;28;20056;-60
2022/02/14 06:30:30;;;;;;;5.60;2.45;;;;;;;10.91;56.45;98098.31;5091293;28;20098;-61
2022/02/14 06:32:57;;;;;;;9.65;2.38;;;;;;;10.89;56.26;98085.31;5091241;28;20446;-61
2022/02/14 06:35:24;;;;;;;6.07;2.25;;;;;;;10.89;56.19;98102.91;5091406;28;20051;-60
2022/02/14 06:37:50;;;;;;;5.78;2.20;;;;;;;10.91;56.29;98100.97;5091345;28;20056;-60
2022/02/14 06:40:17;;;;;;;7.13;2.10;;;;;;;10.92;56.25;98092.94;5091084;28;20044;-60
2022/02/14 06:42:48;;;;;;;4.82;1.95;;;;;;;10.95;56.32;98092.69;5091533;28;20060;-62
2022/02/14 06:45:16;;;;;;;4.90;2.00;;;;;;;10.98;56.43;98083.69;5091334;28;20142;-61
2022/02/14 06:47:43;;;;;;;4.95;2.05;;;;;;;10.99;56.14;98106.41;5091112;28;20098;-62
2022/02/14 06:50:11;;;;;;;4.85;2.00;;;;;;;11.02;56.52;98093.00;5090551;28;20067;-61
2022/02/14 06:52:38;;;;;;;4.30;2.35;;;;;;;11.03;56.13;98091.19;5090940;28;20498;-60
2022/02/14 06:55:06;;;;;;;5.07;2.25;;;;;;;11.07;56.39;98090.78;5091187;28;20048;-60
2022/02/14 06:57:33;;;;;;;6.10;2.42;;;;;;;11.12;56.50;98081.66;5089400;28;20048;-61
2022/02/14 06:59:59;;;;;;;5.38;2.45;;;;;;;11.11;56.17;98086.09;5090220;28;20047;-61
2022/02/14 07:02:26;;;;;;;7.13;2.50;;;;;;;11.16;56.48;98091.81;5091033;28;20113;-60
2022/02/14 07:04:58;;;;;;;5.32;2.65;;;;;;;11.17;56.54;98082.09;5090557;28;20097;-60
2022/02/14 07:07:25;;;;;;;3.80;2.10;;;;;;;11.17;56.42;98084.72;5091256;28;20063;-61
2022/02/14 07:09:51;;;;;;;3.42;1.85;;;;;;;11.16;56.34;98077.78;5090672;28;20052;-61
2022/02/14 07:12:18;;;;;;;3.38;2.08;;;;;;;11.17;56.40;98096.09;5089913;28;20542;-61
2022/02/14 07:14:45;;;;;;;6.32;2.05;;;;;;;11.16;56.47;98091.81;5089694;28;20152;-61
2022/02/14 07:17:12;;;;;;;3.92;1.80;;;;;;;11.18;56.37;98097.75;5089110;28;20052;-63
2022/02/14 07:19:42;;;;;;;7.22;1.92;;;;;;;11.17;56.37;98103.16;5090087;28;20063;-62
2022/02/14 07:22:08;;;;;;;9.55;2.05;;;;;;;11.18;56.50;98095.13;5090096;28;20052;-60
2022/02/14 07:24:35;;;;;;;6.38;2.08;;;;;;;11.17;56.48;98085.56;5090345;28;20044;-59
2022/02/14 07:27:01;;;;;;;3.70;1.90;;;;;;;11.18;56.38;98118.00;5090230;28;20052;-60
2022/02/14 07:29:28;;;;;;;4.90;1.70;;;;;;;11.14;56.15;98096.34;5089726;28;20462;-60
2022/02/14 07:31:55;;;;;;;3.28;1.63;;;;;;;11.18;56.64;98094.31;5090092;28;20048;-63
2022/02/14 07:34:22;;;;;;;4.10;2.10;;;;;;;11.18;56.53;98107.47;5090545;28;20051;-60
2022/02/14 07:36:49;;;;;;;4.55;2.10;;;;;;;11.20;56.78;98089.72;5088864;28;20401;-61
2022/02/14 07:39:16;;;;;;;3.80;1.88;;;;;;;11.21;56.78;98088.75;5088697;28;20071;-61
2022/02/14 07:41:43;;;;;;;5.45;1.88;;;;;;;11.22;56.92;98098.34;5089938;28;20048;-60
2022/02/14 07:44:10;;;;;;;3.22;1.70;;;;;;;11.24;56.92;98096.41;5089508;28;20494;-60
2022/02/14 07:46:36;;;;;;;6.18;2.17;;;;;;;11.26;56.70;98096.28;5090029;28;20052;-60
2022/02/14 07:49:03;;;;;;;6.13;2.20;;;;;;;11.27;57.21;98084.75;5089972;28;20052;-64
2022/02/14 07:51:30;;;;;;;6.95;2.05;;;;;;;11.25;56.77;98097.25;5089589;28;20078;-60
2022/02/14 07:53:56;;;;;;;4.18;1.85;;;;;;;11.27;57.12;98098.78;5089711;28;20044;-60
2022/02/14 07:56:23;;;;;;;4.18;1.90;;;;;;;11.29;57.13;98099.47;5088538;28;20059;-61
2022/02/14 07:58:50;;;;;;;3.28;1.88;;;;;;;11.30;57.27;98093.25;5089805;28;20780;-60
2022/02/14 08:01:17;;;;;;;4.10;1.70;;;;;;;11.34;57.40;98091.16;5087972;28;20052;-61
2022/02/14 08:03:44;;;;;;;3.60;1.60;;;;;;;11.33;56.99;98103.50;5088613;28;20052;-61
2022/02/14 08:06:28;;;;;;;4.35;1.75;;;;;;;11.39;57.47;98093.38;5089907;28;20091;-60
2022/02/14 08:08:54;;;;;;;5.35;1.52;;;;;;;11.40;57.42;98089.81;5089815;28;20474;-61
2022/02/14 08:11:21;;;;;;;2.70;1.65;;;;;;;11.41;57.26;98104.66;5089392;28;20393;-62
2022/02/14 08:13:47;;;;;;;5.90;1.60;;;;;;;11.43;57.53;98100.06;5089529;28;20093;-59
2022/02/14 08:16:14;;;;;;;3.08;1.88;;;;;;;11.48;57.87;98087.34;5089400;28;20052;-61
2022/02/14 08:18:41;;;;;;;4.43;1.60;;;;;;;11.50;57.78;98101.19;5089618;28;20048;-61
2022/02/14 08:21:07;;;;;;;3.90;2.08;;;;;;;11.51;57.76;98086.22;5089294;28;20037;-60
2022/02/14 08:23:34;;;;;;;5.22;2.17;;;;;;;11.55;57.65;98098.16;5091262;28;20078;-60
2022/02/14 08:26:00;;;;;;;2.85;1.73;;;;;;;11.56;57.77;98084.84;5093164;28;20051;-60
2022/02/14 08:28:28;;;;;;;4.47;1.60;;;;;;;11.59;57.83;98089.84;5093311;28;20149;-62
2022/02/14 08:30:54;;;;;;;6.10;2.30;;;;;;;11.64;57.66;98093.88;5092854;28;20484;-60
2022/02/14 08:33:21;;;;;;;4.07;2.22;;;;;;;11.70;57.99;98086.25;5092615;28;20093;-61
2022/02/14 08:35:47;;;;;;;7.07;2.17;;;;;;;11.75;57.81;98095.56;5093317;28;20048;-60
2022/02/14 08:38:14;;;;;;;4.00;1.70;;;;;;;11.81;57.91;98092.41;5093013;28;20098;-60
2022/02/14 08:40:41;;;;;;;3.40;1.65;;;;;;;11.90;57.61;98083.66;5092406;28;20465;-60
2022/02/14 08:43:08;;;;;;;3.95;1.60;;;;;;;11.98;58.25;98096.16;5093204;28;20082;-60
2022/02/14 08:45:54;;;;;;;4.93;1.45;;;;;;;12.07;57.88;98091.91;5092275;28;20075;-60
2022/02/14 08:48:21;;;;;;;2.85;1.70;;;;;;;12.12;57.65;98087.84;5091166;28;20048;-60
2022/02/14 08:50:49;;;;;;;3.55;1.67;;;;;;;12.20;57.42;98096.88;5092727;28;20048;-61
2022/02/14 08:53:18;;;;;;;6.65;1.90;;;;;;;12.27;57.76;98108.56;5091272;28;20467;-61
2022/02/14 08:55:44;;;;;;;6.85;1.80;;;;;;;12.26;56.79;98109.50;5091551;28;20063;-61
2022/02/14 08:58:11;;;;;;;4.70;1.52;;;;;;;12.31;57.37;98099.38;5092680;28;20048;-60
2022/02/14 09:00:38;;;;;;;5.57;1.63;;;;;;;12.36;57.66;98106.84;5090967;28;20048;-62
2022/02/14 09:03:05;;;;;;;4.40;1.63;;;;;;;12.38;57.08;98091.75;5092574;28;21007;-61
2022/02/14 09:05:32;;;;;;;3.08;1.45;;;;;;;12.40;57.43;98102.97;5092161;28;20105;-61
2022/02/14 09:07:59;;;;;;;3.40;1.40;;;;;;;12.42;57.26;98102.84;5092456;28;20047;-60
2022/02/14 09:10:26;;;;;;;2.50;1.73;;;;;;;12.45;57.63;98113.13;5092333;28;20089;-60
2022/02/14 09:12:53;;;;;;;4.13;1.67;;;;;;;12.46;57.44;98117.41;5092407;28;20056;-61
2022/02/14 09:15:19;;;;;;;4.45;1.75;;;;;;;12.46;57.38;98102.44;5091939;28;20044;-61
2022/02/14 09:17:46;;;;;;;3.70;1.60;;;;;;;12.48;57.53;98096.97;5092289;28;20051;-60
2022/02/14 09:20:12;;;;;;;3.75;1.55;;;;;;;12.48;57.50;98100.47;5091752;28;20044;-61
2022/02/14 09:22:39;;;;;;;3.00;1.75;;;;;;;12.46;57.35;98112.13;5092269;28;20554;-60
2022/02/14 09:25:06;;;;;;;3.33;1.83;;;;;;;12.48;57.72;98110.19;5091016;28;20093;-59
2022/02/14 09:27:32;;;;;;;3.50;1.60;;;;;;;12.50;58.10;98103.81;5091910;28;20086;-62
2022/02/14 09:29:59;;;;;;;5.88;1.75;;;;;;;12.53;58.22;98104.50;5091601;28;20093;-60
2022/02/14 09:32:26;;;;;;;3.22;1.55;;;;;;;12.51;57.49;98123.09;5091843;28;20454;-60
2022/02/14 09:34:53;;;;;;;3.20;1.67;;;;;;;12.53;58.15;98115.88;5091751;28;20651;-61
2022/02/14 09:37:20;;;;;;;3.15;1.60;;;;;;;12.52;57.94;98111.56;5091784;28;20400;-60
2022/02/14 09:39:46;;;;;;;2.33;1.60;;;;;;;12.55;57.93;98128.91;5091635;28;20188;-60
2022/02/14 09:42:13;;;;;;;4.57;1.80;;;;;;;12.56;57.88;98112.13;5091809;28;20163;-61
2022/02/14 09:44:39;;;;;;;6.30;1.83;;;;;;;12.61;58.15;98128.38;5091462;28;20101;-61
2022/02/14 09:47:06;;;;;;;2.67;1.63;;;;;;;12.61;57.69;98125.72;5091575;28;20089;-60
2022/02/14 09:49:36;;;;;;;3.22;1.75;;;;;;;12.65;58.23;98119.19;5091312;28;20061;-60
2022/02/14 09:52:03;;;;;;;3.28;1.60;;;;;;;12.67;58.16;98148.91;5090571;28;20052;-60
2022/02/14 09:54:30;;;;;;;3.30;1.50;;;;;;;12.68;58.22;98131.28;5091573;28;20089;-61
2022/02/14 09:56:56;;;;;;;5.80;1.58;;;;;;;12.68;57.95;98129.47;5091384;28;20094;-60
2022/02/14 09:59:23;;;;;;;3.47;1.55;;;;;;;12.66;58.17;98134.06;5091423;28;20044;-61
2022/02/14 10:01:52;;;;;;;4.43;1.80;;;;;;;12.68;58.41;98128.63;5090454;28;20044;-62
2022/02/14 10:04:19;;;;;;;2.58;1.52;;;;;;;12.68;58.36;98136.56;5091854;28;20516;-62
2022/02/14 10:06:46;;;;;;;3.35;1.58;;;;;;;12.68;58.42;98136.56;5091394;28;20121;-61
2022/02/14 10:09:14;;;;;;;4.95;1.60;;;;;;;12.70;58.52;98145.16;5090029;28;20059;-60
2022/02/14 10:12:01;;;;;;;5.57;1.98;;;;;;;12.66;57.05;98141.13;5090049;28;20541;-61
2022/02/14 10:14:29;;;;;;;1.80;1.38;;;;;;;12.71;58.55;98158.22;5091128;28;20063;-60
2022/02/14 10:17:22;;;;;;;2.70;1.63;;;;;;;12.66;57.15;98141.13;5089566;28;20565;-62
2022/02/14 10:20:00;;;;;;;4.00;1.80;;;;;;;12.67;57.24;98150.75;5070360;28;20594;-60
2022/02/14 10:22:26;;;;;;;2.75;1.55;;;;;;;12.68;58.32;98147.13;5086397;28;20169;-62
2022/02/14 10:24:53;;;;;;;4.22;1.75;;;;;;;12.69;58.53;98141.69;5085992;28;20045;-60
2022/02/14 10:27:34;;;;;;;2.50;1.50;;;;;;;12.67;57.28;98158.66;5071074;28;20447;-61
2022/02/14 10:30:11;;;;;;;2.53;1.63;;;;;;;12.67;58.05;98164.75;5069297;28;20048;-60
2022/02/14 10:32:52;;;;;;;3.17;2.83;;;;;;;12.62;57.17;98152.00;5090753;28;20054;-62
2022/02/14 10:35:19;;;;;;;2.00;1.60;;;;;;;12.72;59.06;98148.50;5089405;28;20098;-61
2022/02/14 10:37:46;;;;;;;7.75;1.70;;;;;;;12.72;58.62;98159.06;5089836;28;20052;-60
2022/02/14 10:40:27;;;;;;;5.00;2.05;;;;;;;12.68;57.04;98152.41;5089166;28;20567;-60
2022/02/14 10:42:53;;;;;;;5.82;1.90;;;;;;;12.74;58.76;98162.38;5089556;28;20622;-60
2022/02/14 10:45:21;;;;;;;3.58;1.85;;;;;;;12.79;59.07;98164.63;5089736;28;20124;-62
2022/02/14 10:47:50;;;;;;;5.03;2.35;;;;;;;12.82;58.76;98165.16;5089164;28;20741;-62
2022/02/14 10:50:20;;;;;;;2.83;1.60;;;;;;;12.81;58.32;98178.50;5090076;28;20470;-61
2022/02/14 10:52:55;;;;;;;5.43;1.83;;;;;;;12.84;58.08;98171.13;5089386;28;20040;-60
2022/02/14 10:55:28;;;;;;;3.50;1.35;;;;;;;12.87;58.57;98177.94;5090421;28;20048;-60
2022/02/14 10:57:58;;;;;;;3.33;1.80;;;;;;;12.89;58.72;98182.09;5090466;28;20448;-61
2022/02/14 11:00:32;;;;;;;5.10;2.00;;;;;;;12.88;58.37;98179.59;5090329;28;20074;-61
2022/02/14 11:03:06;;;;;;;4.80;1.80;;;;;;;12.93;59.09;98182.66;5090420;28;20048;-60
2022/02/14 11:05:34;;;;;;;4.25;1.80;;;;;;;12.95;59.42;98185.16;5090007;28;20511;-60
2022/02/14 11:08:01;;;;;;;4.45;1.90;;;;;;;12.94;59.40;98189.63;5090485;28;20060;-61
2022/02/14 11:10:28;;;;;;;5.53;1.83;;;;;;;12.92;59.30;98191.56;5088877;28;20079;-60
2022/02/14 11:12:58;;;;;;;4.60;1.83;;;;;;;12.89;59.40;98199.75;5090463;28;20040;-60
2022/02/14 11:15:31;;;;;;;4.40;1.90;;;;;;;12.85;59.22;98201.00;5090235;28;20048;-60
2022/02/14 11:18:04;;;;;;;3.13;1.80;;;;;;;12.82;59.62;98206.59;5088993;28;20188;-60
2022/02/14 11:20:36;;;;;;;4.13;2.17;;;;;;;12.81;60.15;98202.25;5088592;28;20101;-60
2022/02/14 11:23:06;;;;;;;4.03;1.90;;;;;;;12.75;60.26;98208.97;5090009;28;20070;-62
2022/02/14 11:25:44;;;;;;;2.97;1.45;;;;;;;12.66;60.54;98218.53;5090010;28;20569;-60
2022/02/14 11:28:23;;;;;;;4.60;2.10;;;;;;;12.62;61.24;98203.94;5089898;28;20044;-62
2022/02/14 11:31:05;;;;;;;3.67;1.40;;;;;;;12.58;61.15;98211.31;5089112;28;20040;-60
2022/02/14 11:33:32;;;;;;;1.63;1.30;;;;;;;12.49;61.54;98217.44;5089924;28;20052;-61
2022/02/14 11:36:05;;;;;;;3.80;1.48;;;;;;;12.41;62.25;98225.19;5090199;28;20109;-61
2022/02/14 11:38:43;;;;;;;2.97;1.50;;;;;;;12.40;62.79;98226.19;5090360;28;20641;-61
2022/02/14 11:41:46;;;;;;;2.15;1.42;;;;;;;12.35;63.14;98219.50;5088441;28;20051;-60